Archival Weather

Chicago O'Hare International

Chicago, Illinois (KORD)

Report from: Thursday, December 15, 2022 12:49 AM CST
Current time: Friday, June 21, 2024 8:15 PM CDT

Current weather – Weather history – Daily summaries
Weather forecast

Present weatherLight rain, mist
Temperature3.0°C (37.4°F)
Wind chill1.0°C (33.8°F)
Dew point1.0°C (33.8°F)
Winds 4 kts (2.1 m/s, 4.6 mph) Northwest (310°)
Visibility2.5 mi. (4 km)
Clouds Scattered clouds 800 ft. (244 m)
Ceiling: Broken clouds 1,400 ft. (427 m)
Overcast 3,500 ft. (1,067 m)
Altimeter29.41 in.Hg (996 mB)
Precipitiation0.14 in. (4 mm)
Relative humidity87 %
Density altitude-764 ft. (-233 m)
Remarks Automated weather observing station with precipitation discriminator
Flight conditions Instrument Meteorological Conditions
Raw dataKORD 150649Z 31004KT 2 1/2SM -RA BR SCT008 BKN014 OVC035 03/01 A2941 RMK AO2 P0014
An error has occurred. This application may no longer respond until reloaded. Reload 🗙